Home > Products > Valid Products > TAF

000
FTUS42 KMHX 231100
TAFEWN
TAF
KEWN 231138Z 2312/2412 30005KT P6SM SKC
     FM231400 32012G20KT P6SM SKC
     FM232300 36005KT P6SM SKC=



000
FTUS42 KMHX 230500
TAFEWN
TAF
KEWN 230522Z 2306/2406 24004KT P6SM OVC100
     FM230900 32010KT P6SM SCT100
     FM231400 32012G20KT P6SM SKC
     FM232300 34005KT P6SM SKC=



000
FTUS42 KMHX 222300
TAFEWN
TAF
KEWN 222334Z 2300/2324 19008KT P6SM VCSH SCT050 BKN080
     FM230400 30006KT P6SM SKC
     FM231500 32012G20KT P6SM SKC=



000
FTUS42 KMHX 221700 RRA
TAFEWN
TAF
KEWN 221742Z 2218/2318 23010G20KT P6SM SCT050
     FM222300 23011G18KT P6SM VCSH BKN050
     FM230400 30006KT P6SM SKC
     FM231500 32012G20KT P6SM SKC=



000
FTUS42 KMHX 221100
TAFEWN
TAF
KEWN 221139Z 2212/2312 00000KT P6SM SKC
     FM221300 24006G15KT P6SM BKN150
     FM222200 23011G18KT P6SM VCSH BKN080
     FM230400 30006KT P6SM SKC=



000
FTUS42 KMHX 220900 AAA
TAFEWN
TAF AMD
KEWN 220900Z 2209/2306 00000KT 2SM BR BKN200
     FM221100 VRB03KT P6SM BKN150
     FM221500 24006KT P6SM BKN150
     FM222200 23011KT P6SM VCSH BKN080
     FM230300 28006KT P6SM SKC=



000
FTUS42 KMHX 220500 RRA
TAFEWN
TAF
KEWN 220547Z 2206/2306 00000KT 3SM BR BKN200
     FM221100 VRB03KT P6SM BKN150
     FM221500 24006KT P6SM BKN150
     FM222200 23011KT P6SM VCSH BKN080
     FM230300 28006KT P6SM SKC=



000
FTUS42 KMHX 212300
TAFEWN
TAF
KEWN 212321Z 2200/2224 03006KT P6SM SKC
     FM220900 00000KT 4SM BR SKC
     FM221200 24005KT P6SM BKN150
     FM221600 24010KT P6SM SKC=



000
FTUS42 KMHX 211700
TAFEWN
TAF
KEWN 211735Z 2118/2218 34010G18KT P6SM SCT030
     FM212100 01007KT P6SM SKC
     FM220900 00000KT 4SM BR SKC
     FM221200 24005KT P6SM BKN150=



000
FTUS42 KMHX 211100
TAFEWN
TAF
KEWN 211140Z 2112/2212 01013G20KT P6SM OVC015
     FM211500 01010G17KT P6SM SCT025 BKN040
     FM211900 01006KT P6SM SKC
     FM220900 00000KT P6SM BKN150=



000
FTUS42 KMHX 210500 RRA
TAFEWN
TAF
KEWN 210543Z 2106/2206 01013G23KT P6SM OVC020
     FM211400 01010G17KT P6SM SCT025 BKN040
     FM212000 01006KT P6SM SKC=



000
FTUS42 KMHX 210200 AAA
TAFEWN
TAF AMD
KEWN 210222Z 2102/2124 01012G22KT P6SM OVC020
     FM210500 01015G25KT P6SM OVC025
     FM211300 01010KT P6SM OVC015=



000
FTUS42 KMHX 202300
TAFEWN
TAF
KEWN 202321Z 2100/2124 02015G27KT P6SM OVC010
     FM210500 01015G25KT P6SM OVC008
     FM211300 01010KT P6SM OVC015=



000
FTUS42 KMHX 201700
TAFEWN
TAF
KEWN 201725Z 2018/2118 02018G28KT P6SM -SHRA OVC015
      TEMPO 2018/2021 2SM -RA BR OVC009
     FM210500 01015G25KT P6SM OVC008
     FM211300 01010KT P6SM OVC015=



    US Dept of Commerce
    National Oceanic and Atmospheric Administration
    National Weather Service
    1325 East West Highway
    Silver Spring, MD 20910
    Page Author: NWS Internet Services Team
Disclaimer
Information Quality
Credits
Glossary
Privacy Policy
Freedom of Information Act (FOIA)
About Us
Career Opportunities